sensor_id;sensor_type;location;lat;lon;timestamp;P1;durP1;ratioP1;P2;durP2;ratioP2
8857;SDS011;4465;50.904;4.696;2022-11-15T00:00:29;31.92;;;16.52;;
8857;SDS011;4465;50.904;4.696;2022-11-15T00:02:55;32.05;;;15.93;;
8857;SDS011;4465;50.904;4.696;2022-11-15T00:05:23;39.20;;;16.95;;
8857;SDS011;4465;50.904;4.696;2022-11-15T00:07:50;29.38;;;17.13;;
8857;SDS011;4465;50.904;4.696;2022-11-15T00:10:18;33.72;;;17.05;;
8857;SDS011;4465;50.904;4.696;2022-11-15T00:12:44;40.75;;;17.92;;
8857;SDS011;4465;50.904;4.696;2022-11-15T00:15:10;37.60;;;16.85;;
8857;SDS011;4465;50.904;4.696;2022-11-15T00:17:36;39.17;;;17.98;;
8857;SDS011;4465;50.904;4.696;2022-11-15T00:20:02;32.70;;;16.83;;
8857;SDS011;4465;50.904;4.696;2022-11-15T00:22:32;32.05;;;16.58;;
8857;SDS011;4465;50.904;4.696;2022-11-15T00:24:58;31.17;;;17.42;;
8857;SDS011;4465;50.904;4.696;2022-11-15T00:27:24;30.42;;;16.10;;
8857;SDS011;4465;50.904;4.696;2022-11-15T00:29:50;32.40;;;16.88;;
8857;SDS011;4465;50.904;4.696;2022-11-15T00:32:16;34.65;;;17.83;;
8857;SDS011;4465;50.904;4.696;2022-11-15T00:34:42;30.35;;;17.13;;
8857;SDS011;4465;50.904;4.696;2022-11-15T00:37:08;29.48;;;17.02;;
8857;SDS011;4465;50.904;4.696;2022-11-15T00:39:34;31.48;;;17.20;;
8857;SDS011;4465;50.904;4.696;2022-11-15T00:42:00;33.05;;;17.45;;
8857;SDS011;4465;50.904;4.696;2022-11-15T00:44:26;30.55;;;16.52;;
8857;SDS011;4465;50.904;4.696;2022-11-15T00:46:52;30.33;;;16.85;;
8857;SDS011;4465;50.904;4.696;2022-11-15T00:49:18;31.05;;;17.50;;
8857;SDS011;4465;50.904;4.696;2022-11-15T00:51:44;33.47;;;17.42;;
8857;SDS011;4465;50.904;4.696;2022-11-15T00:54:10;36.33;;;17.73;;
8857;SDS011;4465;50.904;4.696;2022-11-15T00:56:36;33.03;;;16.42;;
8857;SDS011;4465;50.904;4.696;2022-11-15T00:59:02;31.05;;;16.95;;
8857;SDS011;4465;50.904;4.696;2022-11-15T01:01:28;30.77;;;16.55;;
8857;SDS011;4465;50.904;4.696;2022-11-15T01:03:54;28.23;;;16.10;;
8857;SDS011;4465;50.904;4.696;2022-11-15T01:06:21;35.00;;;16.95;;
8857;SDS011;4465;50.904;4.696;2022-11-15T01:08:47;33.13;;;17.20;;
8857;SDS011;4465;50.904;4.696;2022-11-15T01:11:13;34.95;;;17.02;;
8857;SDS011;4465;50.904;4.696;2022-11-15T01:13:39;30.52;;;16.08;;
8857;SDS011;4465;50.904;4.696;2022-11-15T01:16:06;30.00;;;16.42;;
8857;SDS011;4465;50.904;4.696;2022-11-15T01:18:40;30.45;;;16.27;;
8857;SDS011;4465;50.904;4.696;2022-11-15T01:21:16;29.35;;;16.33;;
8857;SDS011;4465;50.904;4.696;2022-11-15T01:23:46;29.73;;;15.73;;
8857;SDS011;4465;50.904;4.696;2022-11-15T01:26:12;29.05;;;15.50;;
8857;SDS011;4465;50.904;4.696;2022-11-15T01:28:41;32.58;;;16.88;;
8857;SDS011;4465;50.904;4.696;2022-11-15T01:31:12;34.67;;;16.63;;
8857;SDS011;4465;50.904;4.696;2022-11-15T01:33:40;28.38;;;16.75;;
8857;SDS011;4465;50.904;4.696;2022-11-15T01:36:08;33.97;;;16.85;;
8857;SDS011;4465;50.904;4.696;2022-11-15T01:38:38;31.52;;;16.13;;
8857;SDS011;4465;50.904;4.696;2022-11-15T01:41:04;32.28;;;17.05;;
8857;SDS011;4465;50.904;4.696;2022-11-15T01:43:31;33.67;;;16.75;;
8857;SDS011;4465;50.904;4.696;2022-11-15T01:46:00;34.55;;;17.48;;
8857;SDS011;4465;50.904;4.696;2022-11-15T01:48:33;28.08;;;16.40;;
8857;SDS011;4465;50.904;4.696;2022-11-15T01:51:00;32.13;;;17.13;;
8857;SDS011;4465;50.904;4.696;2022-11-15T01:53:32;32.72;;;17.90;;
8857;SDS011;4465;50.904;4.696;2022-11-15T01:56:05;32.42;;;17.38;;
8857;SDS011;4465;50.904;4.696;2022-11-15T01:58:36;37.47;;;18.10;;
8857;SDS011;4465;50.904;4.696;2022-11-15T02:01:04;34.53;;;17.77;;
8857;SDS011;4465;50.904;4.696;2022-11-15T02:03:44;38.08;;;16.48;;
8857;SDS011;4465;50.904;4.696;2022-11-15T02:06:22;31.83;;;17.10;;
8857;SDS011;4465;50.904;4.696;2022-11-15T02:08:50;32.45;;;18.15;;
8857;SDS011;4465;50.904;4.696;2022-11-15T02:11:16;34.33;;;18.02;;
8857;SDS011;4465;50.904;4.696;2022-11-15T02:13:42;41.83;;;18.95;;
8857;SDS011;4465;50.904;4.696;2022-11-15T02:16:14;40.75;;;17.80;;
8857;SDS011;4465;50.904;4.696;2022-11-15T02:30:42;33.53;;;17.83;;
8857;SDS011;4465;50.904;4.696;2022-11-15T02:33:40;31.88;;;17.42;;
8857;SDS011;4465;50.904;4.696;2022-11-15T02:39:00;32.72;;;17.20;;
8857;SDS011;4465;50.904;4.696;2022-11-15T02:41:46;32.15;;;17.90;;
8857;SDS011;4465;50.904;4.696;2022-11-15T02:44:23;34.75;;;17.80;;
8857;SDS011;4465;50.904;4.696;2022-11-15T02:46:57;36.42;;;17.38;;
8857;SDS011;4465;50.904;4.696;2022-11-15T02:49:45;31.13;;;16.58;;
8857;SDS011;4465;50.904;4.696;2022-11-15T02:52:19;35.55;;;18.08;;
8857;SDS011;4465;50.904;4.696;2022-11-15T02:54:53;33.90;;;16.50;;
8857;SDS011;4465;50.904;4.696;2022-11-15T02:57:23;35.60;;;16.63;;
8857;SDS011;4465;50.904;4.696;2022-11-15T03:02:36;29.63;;;16.63;;
8857;SDS011;4465;50.904;4.696;2022-11-15T03:05:41;36.35;;;17.13;;
8857;SDS011;4465;50.904;4.696;2022-11-15T03:08:27;33.28;;;16.45;;
8857;SDS011;4465;50.904;4.696;2022-11-15T03:14:19;33.05;;;16.95;;
8857;SDS011;4465;50.904;4.696;2022-11-15T03:18:56;30.85;;;16.38;;
8857;SDS011;4465;50.904;4.696;2022-11-15T03:21:43;33.15;;;17.17;;
8857;SDS011;4465;50.904;4.696;2022-11-15T03:24:11;34.72;;;18.63;;
8857;SDS011;4465;50.904;4.696;2022-11-15T03:26:39;34.13;;;18.20;;
8857;SDS011;4465;50.904;4.696;2022-11-15T03:29:16;31.67;;;18.00;;
8857;SDS011;4465;50.904;4.696;2022-11-15T03:31:47;36.63;;;17.70;;
8857;SDS011;4465;50.904;4.696;2022-11-15T03:34:20;32.30;;;17.92;;
8857;SDS011;4465;50.904;4.696;2022-11-15T03:37:06;37.03;;;17.83;;
8857;SDS011;4465;50.904;4.696;2022-11-15T03:39:34;42.80;;;17.88;;
8857;SDS011;4465;50.904;4.696;2022-11-15T03:44:59;31.52;;;16.95;;
8857;SDS011;4465;50.904;4.696;2022-11-15T03:47:34;31.75;;;16.60;;
8857;SDS011;4465;50.904;4.696;2022-11-15T03:50:13;32.50;;;17.13;;
8857;SDS011;4465;50.904;4.696;2022-11-15T03:52:44;35.78;;;16.77;;
8857;SDS011;4465;50.904;4.696;2022-11-15T03:55:14;28.38;;;15.75;;
8857;SDS011;4465;50.904;4.696;2022-11-15T03:57:42;29.83;;;16.25;;
8857;SDS011;4465;50.904;4.696;2022-11-15T04:00:13;30.95;;;15.60;;
8857;SDS011;4465;50.904;4.696;2022-11-15T04:02:40;25.52;;;14.65;;
8857;SDS011;4465;50.904;4.696;2022-11-15T04:05:06;29.20;;;15.05;;
8857;SDS011;4465;50.904;4.696;2022-11-15T04:07:32;26.85;;;15.57;;
8857;SDS011;4465;50.904;4.696;2022-11-15T04:09:58;31.75;;;15.57;;
8857;SDS011;4465;50.904;4.696;2022-11-15T04:12:30;31.05;;;15.70;;
8857;SDS011;4465;50.904;4.696;2022-11-15T04:15:00;27.30;;;15.85;;
8857;SDS011;4465;50.904;4.696;2022-11-15T04:20:04;29.92;;;13.52;;
8857;SDS011;4465;50.904;4.696;2022-11-15T04:22:51;27.58;;;12.57;;
8857;SDS011;4465;50.904;4.696;2022-11-15T04:25:36;27.25;;;12.18;;
8857;SDS011;4465;50.904;4.696;2022-11-15T04:28:02;17.67;;;11.20;;
8857;SDS011;4465;50.904;4.696;2022-11-15T04:30:28;20.17;;;10.18;;
8857;SDS011;4465;50.904;4.696;2022-11-15T04:32:54;24.83;;;11.15;;
8857;SDS011;4465;50.904;4.696;2022-11-15T04:35:20;19.90;;;11.52;;
8857;SDS011;4465;50.904;4.696;2022-11-15T04:37:46;24.40;;;11.48;;
8857;SDS011;4465;50.904;4.696;2022-11-15T04:40:12;23.35;;;11.65;;
8857;SDS011;4465;50.904;4.696;2022-11-15T04:42:40;23.20;;;11.10;;
8857;SDS011;4465;50.904;4.696;2022-11-15T04:45:07;21.02;;;10.38;;
8857;SDS011;4465;50.904;4.696;2022-11-15T04:47:33;24.55;;;12.40;;
8857;SDS011;4465;50.904;4.696;2022-11-15T04:49:59;20.55;;;12.15;;
8857;SDS011;4465;50.904;4.696;2022-11-15T04:52:26;21.52;;;11.32;;
8857;SDS011;4465;50.904;4.696;2022-11-15T04:54:52;20.45;;;11.10;;
8857;SDS011;4465;50.904;4.696;2022-11-15T04:57:18;23.10;;;11.40;;
8857;SDS011;4465;50.904;4.696;2022-11-15T04:59:44;20.27;;;10.10;;
8857;SDS011;4465;50.904;4.696;2022-11-15T05:02:11;20.02;;;10.00;;
8857;SDS011;4465;50.904;4.696;2022-11-15T05:04:37;16.10;;;9.60;;
8857;SDS011;4465;50.904;4.696;2022-11-15T05:07:05;20.05;;;9.45;;
8857;SDS011;4465;50.904;4.696;2022-11-15T05:09:31;18.88;;;9.23;;
8857;SDS011;4465;50.904;4.696;2022-11-15T05:11:57;19.75;;;9.85;;
8857;SDS011;4465;50.904;4.696;2022-11-15T05:14:26;20.40;;;9.27;;
8857;SDS011;4465;50.904;4.696;2022-11-15T05:16:52;19.08;;;9.90;;
8857;SDS011;4465;50.904;4.696;2022-11-15T05:19:18;21.63;;;9.75;;
8857;SDS011;4465;50.904;4.696;2022-11-15T05:21:47;20.58;;;10.25;;
8857;SDS011;4465;50.904;4.696;2022-11-15T05:24:12;17.08;;;9.20;;
8857;SDS011;4465;50.904;4.696;2022-11-15T05:26:41;19.40;;;9.63;;
8857;SDS011;4465;50.904;4.696;2022-11-15T05:29:09;20.25;;;9.88;;
8857;SDS011;4465;50.904;4.696;2022-11-15T05:31:39;22.83;;;9.07;;
8857;SDS011;4465;50.904;4.696;2022-11-15T05:34:08;21.52;;;9.57;;
8857;SDS011;4465;50.904;4.696;2022-11-15T05:39:03;17.35;;;9.55;;
8857;SDS011;4465;50.904;4.696;2022-11-15T05:41:32;15.93;;;8.60;;
8857;SDS011;4465;50.904;4.696;2022-11-15T05:44:03;17.25;;;8.60;;
8857;SDS011;4465;50.904;4.696;2022-11-15T05:46:34;18.00;;;8.32;;
8857;SDS011;4465;50.904;4.696;2022-11-15T05:49:01;16.80;;;8.85;;
8857;SDS011;4465;50.904;4.696;2022-11-15T05:51:30;19.77;;;8.70;;
8857;SDS011;4465;50.904;4.696;2022-11-15T05:53:56;17.65;;;8.98;;
8857;SDS011;4465;50.904;4.696;2022-11-15T05:56:24;20.50;;;8.45;;
8857;SDS011;4465;50.904;4.696;2022-11-15T05:58:53;18.40;;;8.35;;
8857;SDS011;4465;50.904;4.696;2022-11-15T06:01:22;18.38;;;8.27;;
8857;SDS011;4465;50.904;4.696;2022-11-15T06:03:52;21.27;;;9.05;;
8857;SDS011;4465;50.904;4.696;2022-11-15T06:06:20;16.40;;;8.40;;
8857;SDS011;4465;50.904;4.696;2022-11-15T06:08:46;20.73;;;8.98;;
8857;SDS011;4465;50.904;4.696;2022-11-15T06:11:13;16.03;;;8.47;;
8857;SDS011;4465;50.904;4.696;2022-11-15T06:13:39;16.58;;;8.38;;
8857;SDS011;4465;50.904;4.696;2022-11-15T06:16:05;15.63;;;8.00;;
8857;SDS011;4465;50.904;4.696;2022-11-15T06:18:32;14.20;;;8.55;;
8857;SDS011;4465;50.904;4.696;2022-11-15T06:20:59;18.23;;;8.30;;
8857;SDS011;4465;50.904;4.696;2022-11-15T06:23:25;17.65;;;8.00;;
8857;SDS011;4465;50.904;4.696;2022-11-15T06:25:52;17.27;;;8.47;;
8857;SDS011;4465;50.904;4.696;2022-11-15T06:28:18;19.80;;;9.68;;
8857;SDS011;4465;50.904;4.696;2022-11-15T06:30:44;18.25;;;8.52;;
8857;SDS011;4465;50.904;4.696;2022-11-15T06:33:10;17.58;;;8.90;;
8857;SDS011;4465;50.904;4.696;2022-11-15T06:35:39;15.57;;;8.70;;
8857;SDS011;4465;50.904;4.696;2022-11-15T06:38:06;19.63;;;8.55;;
8857;SDS011;4465;50.904;4.696;2022-11-15T06:40:34;21.27;;;8.95;;
8857;SDS011;4465;50.904;4.696;2022-11-15T06:43:02;17.60;;;8.38;;
8857;SDS011;4465;50.904;4.696;2022-11-15T06:45:31;18.20;;;8.40;;
8857;SDS011;4465;50.904;4.696;2022-11-15T06:48:00;20.40;;;9.00;;
8857;SDS011;4465;50.904;4.696;2022-11-15T06:50:26;25.73;;;9.40;;
8857;SDS011;4465;50.904;4.696;2022-11-15T06:52:52;18.30;;;9.00;;
8857;SDS011;4465;50.904;4.696;2022-11-15T06:55:20;18.80;;;8.95;;
8857;SDS011;4465;50.904;4.696;2022-11-15T06:57:52;19.02;;;8.68;;
8857;SDS011;4465;50.904;4.696;2022-11-15T07:00:21;19.35;;;9.25;;
8857;SDS011;4465;50.904;4.696;2022-11-15T07:02:51;21.95;;;9.32;;
8857;SDS011;4465;50.904;4.696;2022-11-15T07:05:16;29.27;;;9.80;;
8857;SDS011;4465;50.904;4.696;2022-11-15T07:07:42;24.48;;;10.23;;
8857;SDS011;4465;50.904;4.696;2022-11-15T07:10:09;19.38;;;8.98;;
8857;SDS011;4465;50.904;4.696;2022-11-15T07:12:35;17.70;;;8.68;;
8857;SDS011;4465;50.904;4.696;2022-11-15T07:15:01;18.40;;;9.35;;
8857;SDS011;4465;50.904;4.696;2022-11-15T07:17:27;19.55;;;8.73;;
8857;SDS011;4465;50.904;4.696;2022-11-15T07:19:54;19.70;;;9.07;;
8857;SDS011;4465;50.904;4.696;2022-11-15T07:22:20;23.30;;;8.65;;
8857;SDS011;4465;50.904;4.696;2022-11-15T07:24:45;19.23;;;8.43;;
8857;SDS011;4465;50.904;4.696;2022-11-15T07:27:11;18.27;;;8.95;;
8857;SDS011;4465;50.904;4.696;2022-11-15T07:29:38;16.48;;;7.90;;
8857;SDS011;4465;50.904;4.696;2022-11-15T07:32:06;17.33;;;8.07;;
8857;SDS011;4465;50.904;4.696;2022-11-15T07:34:31;20.90;;;7.75;;
8857;SDS011;4465;50.904;4.696;2022-11-15T07:36:57;19.35;;;7.57;;
8857;SDS011;4465;50.904;4.696;2022-11-15T07:39:24;16.48;;;7.57;;
8857;SDS011;4465;50.904;4.696;2022-11-15T07:41:52;17.77;;;7.85;;
8857;SDS011;4465;50.904;4.696;2022-11-15T07:44:38;13.10;;;6.63;;
8857;SDS011;4465;50.904;4.696;2022-11-15T07:47:07;16.10;;;6.72;;
8857;SDS011;4465;50.904;4.696;2022-11-15T07:49:33;16.55;;;6.35;;
8857;SDS011;4465;50.904;4.696;2022-11-15T07:52:04;14.10;;;6.32;;
8857;SDS011;4465;50.904;4.696;2022-11-15T07:54:30;9.98;;;5.47;;
8857;SDS011;4465;50.904;4.696;2022-11-15T07:56:56;15.75;;;5.57;;
8857;SDS011;4465;50.904;4.696;2022-11-15T07:59:22;11.35;;;5.30;;
8857;SDS011;4465;50.904;4.696;2022-11-15T08:01:48;12.75;;;5.07;;
8857;SDS011;4465;50.904;4.696;2022-11-15T08:04:20;11.27;;;5.75;;
8857;SDS011;4465;50.904;4.696;2022-11-15T08:06:46;9.85;;;4.55;;
8857;SDS011;4465;50.904;4.696;2022-11-15T08:09:12;15.68;;;5.78;;
8857;SDS011;4465;50.904;4.696;2022-11-15T08:11:38;12.90;;;5.28;;
8857;SDS011;4465;50.904;4.696;2022-11-15T08:14:04;18.08;;;6.47;;
8857;SDS011;4465;50.904;4.696;2022-11-15T08:16:30;21.38;;;5.25;;
8857;SDS011;4465;50.904;4.696;2022-11-15T08:18:56;14.80;;;4.65;;
8857;SDS011;4465;50.904;4.696;2022-11-15T08:21:22;10.95;;;4.40;;
8857;SDS011;4465;50.904;4.696;2022-11-15T08:23:48;6.22;;;3.92;;
8857;SDS011;4465;50.904;4.696;2022-11-15T08:26:17;15.00;;;3.90;;
8857;SDS011;4465;50.904;4.696;2022-11-15T08:28:43;9.70;;;3.95;;
8857;SDS011;4465;50.904;4.696;2022-11-15T08:31:13;9.90;;;3.55;;
8857;SDS011;4465;50.904;4.696;2022-11-15T08:33:42;7.45;;;2.90;;
8857;SDS011;4465;50.904;4.696;2022-11-15T08:36:10;9.73;;;3.30;;
8857;SDS011;4465;50.904;4.696;2022-11-15T08:38:39;7.30;;;3.33;;
8857;SDS011;4465;50.904;4.696;2022-11-15T08:41:06;8.95;;;3.72;;
8857;SDS011;4465;50.904;4.696;2022-11-15T08:43:35;7.50;;;2.10;;
8857;SDS011;4465;50.904;4.696;2022-11-15T08:46:04;8.43;;;2.75;;
8857;SDS011;4465;50.904;4.696;2022-11-15T08:48:32;10.65;;;3.45;;
8857;SDS011;4465;50.904;4.696;2022-11-15T08:51:00;4.60;;;1.60;;
8857;SDS011;4465;50.904;4.696;2022-11-15T08:53:26;9.48;;;3.33;;
8857;SDS011;4465;50.904;4.696;2022-11-15T08:55:53;4.75;;;2.20;;
8857;SDS011;4465;50.904;4.696;2022-11-15T08:58:19;6.10;;;1.75;;
8857;SDS011;4465;50.904;4.696;2022-11-15T09:00:48;7.32;;;1.67;;
8857;SDS011;4465;50.904;4.696;2022-11-15T09:03:18;9.40;;;2.15;;
8857;SDS011;4465;50.904;4.696;2022-11-15T09:05:46;6.10;;;2.08;;
8857;SDS011;4465;50.904;4.696;2022-11-15T09:08:12;6.57;;;1.85;;
8857;SDS011;4465;50.904;4.696;2022-11-15T09:10:38;10.02;;;2.20;;
8857;SDS011;4465;50.904;4.696;2022-11-15T09:13:04;2.50;;;1.60;;
8857;SDS011;4465;50.904;4.696;2022-11-15T09:15:30;10.52;;;2.40;;
8857;SDS011;4465;50.904;4.696;2022-11-15T09:18:00;9.02;;;2.00;;
8857;SDS011;4465;50.904;4.696;2022-11-15T09:20:27;7.50;;;1.95;;
8857;SDS011;4465;50.904;4.696;2022-11-15T09:22:58;6.07;;;1.90;;
8857;SDS011;4465;50.904;4.696;2022-11-15T09:25:28;7.10;;;1.80;;
8857;SDS011;4465;50.904;4.696;2022-11-15T09:27:57;5.75;;;1.40;;
8857;SDS011;4465;50.904;4.696;2022-11-15T09:30:23;10.52;;;2.10;;
8857;SDS011;4465;50.904;4.696;2022-11-15T09:32:50;10.30;;;3.97;;
8857;SDS011;4465;50.904;4.696;2022-11-15T09:35:16;10.68;;;1.90;;
8857;SDS011;4465;50.904;4.696;2022-11-15T09:37:43;9.98;;;1.85;;
8857;SDS011;4465;50.904;4.696;2022-11-15T09:40:09;9.00;;;2.10;;
8857;SDS011;4465;50.904;4.696;2022-11-15T09:45:18;11.82;;;2.92;;
8857;SDS011;4465;50.904;4.696;2022-11-15T09:51:08;10.15;;;1.95;;
8857;SDS011;4465;50.904;4.696;2022-11-15T09:53:41;10.35;;;2.90;;
8857;SDS011;4465;50.904;4.696;2022-11-15T09:56:26;5.57;;;1.70;;
8857;SDS011;4465;50.904;4.696;2022-11-15T10:04:30;5.90;;;1.35;;
8857;SDS011;4465;50.904;4.696;2022-11-15T10:09:48;4.70;;;1.25;;
8857;SDS011;4465;50.904;4.696;2022-11-15T10:12:18;7.97;;;1.63;;
8857;SDS011;4465;50.904;4.696;2022-11-15T10:14:45;5.18;;;1.25;;
8857;SDS011;4465;50.904;4.696;2022-11-15T10:20:11;11.50;;;1.42;;
8857;SDS011;4465;50.904;4.696;2022-11-15T10:25:45;6.85;;;2.05;;
8857;SDS011;4465;50.904;4.696;2022-11-15T10:28:15;5.88;;;1.38;;
8857;SDS011;4465;50.904;4.696;2022-11-15T10:35:48;8.80;;;1.52;;
8857;SDS011;4465;50.904;4.696;2022-11-15T10:38:14;5.90;;;1.60;;
8857;SDS011;4465;50.904;4.696;2022-11-15T10:40:43;6.88;;;1.48;;
8857;SDS011;4465;50.904;4.696;2022-11-15T10:45:38;4.90;;;1.35;;
8857;SDS011;4465;50.904;4.696;2022-11-15T10:50:45;5.47;;;1.50;;
8857;SDS011;4465;50.904;4.696;2022-11-15T10:53:15;3.53;;;1.35;;
8857;SDS011;4465;50.904;4.696;2022-11-15T10:55:49;12.82;;;2.65;;
8857;SDS011;4465;50.904;4.696;2022-11-15T10:58:21;6.80;;;1.55;;
8857;SDS011;4465;50.904;4.696;2022-11-15T11:00:48;8.13;;;1.60;;
8857;SDS011;4465;50.904;4.696;2022-11-15T11:03:33;5.78;;;1.77;;
8857;SDS011;4465;50.904;4.696;2022-11-15T11:06:15;6.68;;;1.88;;
8857;SDS011;4465;50.904;4.696;2022-11-15T11:11:45;7.32;;;1.67;;
8857;SDS011;4465;50.904;4.696;2022-11-15T11:17:13;13.40;;;2.20;;
8857;SDS011;4465;50.904;4.696;2022-11-15T11:31:05;6.13;;;1.38;;
8857;SDS011;4465;50.904;4.696;2022-11-15T11:36:35;7.35;;;1.60;;
8857;SDS011;4465;50.904;4.696;2022-11-15T11:48:11;4.20;;;1.40;;
8857;SDS011;4465;50.904;4.696;2022-11-15T11:50:39;6.32;;;1.00;;
8857;SDS011;4465;50.904;4.696;2022-11-15T11:53:15;5.90;;;1.13;;
8857;SDS011;4465;50.904;4.696;2022-11-15T11:55:53;6.55;;;1.20;;
8857;SDS011;4465;50.904;4.696;2022-11-15T11:58:38;13.18;;;1.55;;
8857;SDS011;4465;50.904;4.696;2022-11-15T12:06:36;5.65;;;1.42;;
8857;SDS011;4465;50.904;4.696;2022-11-15T12:17:53;4.25;;;1.08;;
8857;SDS011;4465;50.904;4.696;2022-11-15T12:20:26;10.45;;;1.70;;
8857;SDS011;4465;50.904;4.696;2022-11-15T12:23:04;6.25;;;1.58;;
8857;SDS011;4465;50.904;4.696;2022-11-15T12:25:32;8.00;;;1.55;;
8857;SDS011;4465;50.904;4.696;2022-11-15T12:31:14;9.55;;;1.40;;
8857;SDS011;4465;50.904;4.696;2022-11-15T12:33:54;6.53;;;1.50;;
8857;SDS011;4465;50.904;4.696;2022-11-15T12:41:28;12.02;;;1.83;;
8857;SDS011;4465;50.904;4.696;2022-11-15T12:43:56;3.28;;;1.10;;
8857;SDS011;4465;50.904;4.696;2022-11-15T13:02:24;5.60;;;1.65;;
8857;SDS011;4465;50.904;4.696;2022-11-15T13:12:53;5.03;;;1.50;;
8857;SDS011;4465;50.904;4.696;2022-11-15T13:18:33;6.35;;;1.30;;
8857;SDS011;4465;50.904;4.696;2022-11-15T13:21:22;7.82;;;1.60;;
8857;SDS011;4465;50.904;4.696;2022-11-15T13:24:15;9.68;;;1.58;;
8857;SDS011;4465;50.904;4.696;2022-11-15T13:26:42;5.03;;;1.20;;
8857;SDS011;4465;50.904;4.696;2022-11-15T13:29:16;5.00;;;1.35;;
8857;SDS011;4465;50.904;4.696;2022-11-15T13:31:43;6.28;;;1.48;;
8857;SDS011;4465;50.904;4.696;2022-11-15T13:34:18;3.22;;;1.33;;
8857;SDS011;4465;50.904;4.696;2022-11-15T13:36:49;4.47;;;1.20;;
8857;SDS011;4465;50.904;4.696;2022-11-15T13:41:54;7.95;;;1.40;;
8857;SDS011;4465;50.904;4.696;2022-11-15T13:44:21;3.97;;;1.35;;
8857;SDS011;4465;50.904;4.696;2022-11-15T13:49:32;3.03;;;1.55;;
8857;SDS011;4465;50.904;4.696;2022-11-15T13:52:00;4.00;;;1.20;;
8857;SDS011;4465;50.904;4.696;2022-11-15T13:54:38;4.43;;;1.45;;
8857;SDS011;4465;50.904;4.696;2022-11-15T13:57:13;3.63;;;1.35;;
8857;SDS011;4465;50.904;4.696;2022-11-15T14:00:02;10.93;;;1.77;;
8857;SDS011;4465;50.904;4.696;2022-11-15T14:02:31;3.75;;;1.30;;
8857;SDS011;4465;50.904;4.696;2022-11-15T14:05:01;3.25;;;1.13;;
8857;SDS011;4465;50.904;4.696;2022-11-15T14:07:38;4.45;;;1.63;;
8857;SDS011;4465;50.904;4.696;2022-11-15T14:12:55;7.85;;;1.70;;
8857;SDS011;4465;50.904;4.696;2022-11-15T14:15:29;2.83;;;1.20;;
8857;SDS011;4465;50.904;4.696;2022-11-15T14:17:57;6.10;;;1.27;;
8857;SDS011;4465;50.904;4.696;2022-11-15T14:20:28;3.37;;;1.40;;
8857;SDS011;4465;50.904;4.696;2022-11-15T14:23:19;2.75;;;1.20;;
8857;SDS011;4465;50.904;4.696;2022-11-15T14:25:59;3.67;;;1.25;;
8857;SDS011;4465;50.904;4.696;2022-11-15T14:30:52;3.47;;;1.20;;
8857;SDS011;4465;50.904;4.696;2022-11-15T14:35:56;5.43;;;1.60;;
8857;SDS011;4465;50.904;4.696;2022-11-15T14:38:29;6.28;;;2.05;;
8857;SDS011;4465;50.904;4.696;2022-11-15T14:40:55;4.97;;;1.40;;
8857;SDS011;4465;50.904;4.696;2022-11-15T14:43:23;5.28;;;1.80;;
8857;SDS011;4465;50.904;4.696;2022-11-15T14:45:52;6.60;;;1.70;;
8857;SDS011;4465;50.904;4.696;2022-11-15T14:48:18;3.72;;;1.60;;
8857;SDS011;4465;50.904;4.696;2022-11-15T14:50:43;3.15;;;1.50;;
8857;SDS011;4465;50.904;4.696;2022-11-15T14:53:17;4.90;;;1.87;;
8857;SDS011;4465;50.904;4.696;2022-11-15T14:55:44;8.63;;;2.05;;
8857;SDS011;4465;50.904;4.696;2022-11-15T14:58:10;3.50;;;1.90;;
8857;SDS011;4465;50.904;4.696;2022-11-15T15:00:36;4.07;;;1.48;;
8857;SDS011;4465;50.904;4.696;2022-11-15T15:03:04;3.10;;;1.70;;
8857;SDS011;4465;50.904;4.696;2022-11-15T15:05:34;6.18;;;1.63;;
8857;SDS011;4465;50.904;4.696;2022-11-15T15:08:03;2.85;;;1.58;;
8857;SDS011;4465;50.904;4.696;2022-11-15T15:10:31;5.38;;;1.88;;
8857;SDS011;4465;50.904;4.696;2022-11-15T15:13:02;3.58;;;1.85;;
8857;SDS011;4465;50.904;4.696;2022-11-15T15:15:33;6.23;;;1.67;;
8857;SDS011;4465;50.904;4.696;2022-11-15T15:18:00;4.25;;;1.70;;
8857;SDS011;4465;50.904;4.696;2022-11-15T15:20:27;6.35;;;2.15;;
8857;SDS011;4465;50.904;4.696;2022-11-15T15:22:54;3.53;;;1.83;;
8857;SDS011;4465;50.904;4.696;2022-11-15T15:27:47;4.40;;;1.83;;
8857;SDS011;4465;50.904;4.696;2022-11-15T15:30:13;5.15;;;1.67;;
8857;SDS011;4465;50.904;4.696;2022-11-15T15:32:39;5.72;;;1.90;;
8857;SDS011;4465;50.904;4.696;2022-11-15T15:35:06;6.47;;;1.88;;
8857;SDS011;4465;50.904;4.696;2022-11-15T15:37:36;5.40;;;1.98;;
8857;SDS011;4465;50.904;4.696;2022-11-15T15:40:20;6.57;;;1.80;;
8857;SDS011;4465;50.904;4.696;2022-11-15T15:42:47;4.68;;;2.35;;
8857;SDS011;4465;50.904;4.696;2022-11-15T15:45:14;2.50;;;1.50;;
8857;SDS011;4465;50.904;4.696;2022-11-15T15:47:43;7.22;;;2.60;;
8857;SDS011;4465;50.904;4.696;2022-11-15T15:50:18;5.18;;;2.28;;
8857;SDS011;4465;50.904;4.696;2022-11-15T15:52:53;6.65;;;2.50;;
8857;SDS011;4465;50.904;4.696;2022-11-15T15:55:21;6.72;;;2.50;;
8857;SDS011;4465;50.904;4.696;2022-11-15T15:57:50;6.50;;;2.20;;
8857;SDS011;4465;50.904;4.696;2022-11-15T16:00:22;4.97;;;2.38;;
8857;SDS011;4465;50.904;4.696;2022-11-15T16:02:50;4.80;;;2.30;;
8857;SDS011;4465;50.904;4.696;2022-11-15T16:05:16;6.07;;;2.22;;
8857;SDS011;4465;50.904;4.696;2022-11-15T16:07:43;3.92;;;2.03;;
8857;SDS011;4465;50.904;4.696;2022-11-15T16:12:48;7.97;;;2.60;;
8857;SDS011;4465;50.904;4.696;2022-11-15T16:15:14;5.23;;;2.30;;
8857;SDS011;4465;50.904;4.696;2022-11-15T16:17:53;5.22;;;2.47;;
8857;SDS011;4465;50.904;4.696;2022-11-15T16:22:47;4.95;;;2.38;;
8857;SDS011;4465;50.904;4.696;2022-11-15T16:25:13;4.03;;;2.33;;
8857;SDS011;4465;50.904;4.696;2022-11-15T16:27:39;4.75;;;2.47;;
8857;SDS011;4465;50.904;4.696;2022-11-15T16:30:17;12.15;;;2.65;;
8857;SDS011;4465;50.904;4.696;2022-11-15T16:32:44;6.53;;;2.88;;
8857;SDS011;4465;50.904;4.696;2022-11-15T16:35:10;6.18;;;2.70;;
8857;SDS011;4465;50.904;4.696;2022-11-15T16:37:40;5.93;;;2.30;;
8857;SDS011;4465;50.904;4.696;2022-11-15T16:40:12;7.03;;;2.77;;
8857;SDS011;4465;50.904;4.696;2022-11-15T16:42:50;8.02;;;2.97;;
8857;SDS011;4465;50.904;4.696;2022-11-15T16:45:15;7.97;;;3.78;;
8857;SDS011;4465;50.904;4.696;2022-11-15T16:47:42;6.97;;;2.63;;
8857;SDS011;4465;50.904;4.696;2022-11-15T16:50:29;5.30;;;2.53;;
8857;SDS011;4465;50.904;4.696;2022-11-15T16:52:59;6.32;;;2.95;;
8857;SDS011;4465;50.904;4.696;2022-11-15T16:55:26;6.53;;;2.78;;
8857;SDS011;4465;50.904;4.696;2022-11-15T16:57:54;5.78;;;3.10;;
8857;SDS011;4465;50.904;4.696;2022-11-15T17:00:22;6.72;;;3.67;;
8857;SDS011;4465;50.904;4.696;2022-11-15T17:02:53;6.55;;;3.33;;
8857;SDS011;4465;50.904;4.696;2022-11-15T17:05:22;7.97;;;3.58;;
8857;SDS011;4465;50.904;4.696;2022-11-15T17:07:54;5.28;;;2.47;;
8857;SDS011;4465;50.904;4.696;2022-11-15T17:10:21;5.90;;;2.78;;
8857;SDS011;4465;50.904;4.696;2022-11-15T17:12:49;7.20;;;3.13;;
8857;SDS011;4465;50.904;4.696;2022-11-15T17:15:15;10.23;;;3.33;;
8857;SDS011;4465;50.904;4.696;2022-11-15T17:17:41;4.60;;;2.58;;
8857;SDS011;4465;50.904;4.696;2022-11-15T17:20:15;6.03;;;3.35;;
8857;SDS011;4465;50.904;4.696;2022-11-15T17:22:42;4.40;;;2.70;;
8857;SDS011;4465;50.904;4.696;2022-11-15T17:25:08;7.10;;;3.28;;
8857;SDS011;4465;50.904;4.696;2022-11-15T17:27:34;5.90;;;3.35;;
8857;SDS011;4465;50.904;4.696;2022-11-15T17:30:01;6.18;;;3.42;;
8857;SDS011;4465;50.904;4.696;2022-11-15T17:32:27;5.97;;;3.40;;
8857;SDS011;4465;50.904;4.696;2022-11-15T17:34:56;7.80;;;4.10;;
8857;SDS011;4465;50.904;4.696;2022-11-15T17:37:21;7.47;;;3.38;;
8857;SDS011;4465;50.904;4.696;2022-11-15T17:39:47;6.57;;;3.00;;
8857;SDS011;4465;50.904;4.696;2022-11-15T17:42:15;6.07;;;3.40;;
8857;SDS011;4465;50.904;4.696;2022-11-15T17:44:44;9.98;;;3.80;;
8857;SDS011;4465;50.904;4.696;2022-11-15T17:47:10;7.60;;;3.50;;
8857;SDS011;4465;50.904;4.696;2022-11-15T17:49:35;6.18;;;3.30;;
8857;SDS011;4465;50.904;4.696;2022-11-15T17:52:07;4.68;;;2.75;;
8857;SDS011;4465;50.904;4.696;2022-11-15T17:54:36;8.57;;;3.38;;
8857;SDS011;4465;50.904;4.696;2022-11-15T17:57:01;4.93;;;3.00;;